createdAt,value
2023-06-19T00:00:08.248Z,8.80
2023-06-19T00:00:40.935Z,8.32
2023-06-19T00:01:12.599Z,8.50
2023-06-19T00:01:44.311Z,8.30
2023-06-19T00:02:16.156Z,8.48
2023-06-19T00:02:48.052Z,8.68
2023-06-19T00:03:19.826Z,9.02
2023-06-19T00:03:51.528Z,9.07
2023-06-19T00:04:23.400Z,8.70
2023-06-19T00:04:55.147Z,8.63
2023-06-19T00:05:26.867Z,8.73
2023-06-19T00:05:58.535Z,8.43
2023-06-19T00:06:30.252Z,8.20
2023-06-19T00:07:02.399Z,8.40
2023-06-19T00:07:34.535Z,8.98
2023-06-19T00:08:07.702Z,8.38
2023-06-19T00:08:42.496Z,8.45
2023-06-19T00:09:14.441Z,8.63
2023-06-19T00:09:46.094Z,8.90
2023-06-19T00:10:17.933Z,8.93
2023-06-19T00:10:49.574Z,9.10
2023-06-19T00:11:21.348Z,9.02
2023-06-19T00:11:53.082Z,9.03
2023-06-19T00:12:24.706Z,9.25
2023-06-19T00:12:56.347Z,8.57
2023-06-19T00:13:27.998Z,9.20
2023-06-19T00:14:00.008Z,8.90
2023-06-19T00:14:31.844Z,8.73
2023-06-19T00:15:04.218Z,9.05
2023-06-19T00:15:35.852Z,9.48
2023-06-19T00:16:07.594Z,9.20
2023-06-19T00:16:39.615Z,9.27
2023-06-19T00:17:11.805Z,8.70
2023-06-19T00:17:43.486Z,8.80
2023-06-19T00:18:17.403Z,8.68
2023-06-19T00:18:49.382Z,8.48
2023-06-19T00:19:21.047Z,8.30
2023-06-19T00:19:52.778Z,8.52
2023-06-19T00:20:25.545Z,8.48
2023-06-19T00:20:57.990Z,9.10
2023-06-19T00:21:29.942Z,9.13
2023-06-19T00:22:01.635Z,9.13
2023-06-19T00:22:33.511Z,8.67
2023-06-19T00:23:05.122Z,8.48
2023-06-19T00:23:36.950Z,8.70
2023-06-19T00:24:08.795Z,8.73
2023-06-19T00:24:40.620Z,8.38
2023-06-19T00:25:12.315Z,8.60
2023-06-19T00:25:45.429Z,8.98
2023-06-19T00:26:17.129Z,8.73
2023-06-19T00:26:48.799Z,8.70
2023-06-19T00:27:20.478Z,8.20
2023-06-19T00:27:52.155Z,9.10
2023-06-19T00:28:23.805Z,8.07
2023-06-19T00:28:55.450Z,8.70
2023-06-19T00:29:29.284Z,8.50
2023-06-19T00:30:03.636Z,8.10
2023-06-19T00:30:35.313Z,8.00
2023-06-19T00:31:08.082Z,8.30
2023-06-19T00:31:39.733Z,8.15
2023-06-19T00:32:11.379Z,8.02
2023-06-19T00:32:50.599Z,8.50
2023-06-19T00:33:22.608Z,8.50
2023-06-19T00:33:54.831Z,8.55
2023-06-19T00:34:26.620Z,9.07
2023-06-19T00:34:58.252Z,8.75
2023-06-19T00:35:29.981Z,8.23
2023-06-19T00:36:02.503Z,8.52
2023-06-19T00:36:41.862Z,8.40
2023-06-19T00:37:14.487Z,8.63
2023-06-19T00:37:46.310Z,8.07
2023-06-19T00:38:18.079Z,7.95
2023-06-19T00:38:49.743Z,8.33
2023-06-19T00:39:21.366Z,8.93
2023-06-19T00:39:53.016Z,8.23
2023-06-19T00:40:30.569Z,8.90
2023-06-19T00:41:02.388Z,8.45
2023-06-19T00:41:36.403Z,8.88
2023-06-19T00:42:08.192Z,8.40
2023-06-19T00:42:39.803Z,8.02
2023-06-19T00:43:11.655Z,8.88
2023-06-19T00:43:43.524Z,8.55
2023-06-19T00:44:15.886Z,8.83
2023-06-19T00:44:47.535Z,9.20
2023-06-19T00:45:19.220Z,8.80
2023-06-19T00:45:51.144Z,8.70
2023-06-19T00:46:23.006Z,9.23
2023-06-19T00:47:05.126Z,9.05
2023-06-19T00:47:36.821Z,8.63
2023-06-19T00:48:09.163Z,8.35
2023-06-19T00:48:41.055Z,8.63
2023-06-19T00:49:14.438Z,8.77
2023-06-19T00:49:46.696Z,9.30
2023-06-19T00:50:18.418Z,8.32
2023-06-19T00:50:51.314Z,9.45
2023-06-19T00:51:23.002Z,9.15
2023-06-19T00:51:54.859Z,9.02
2023-06-19T00:52:26.487Z,8.63
2023-06-19T00:52:59.362Z,9.32
2023-06-19T00:53:32.078Z,8.70
2023-06-19T00:54:04.169Z,9.00
2023-06-19T00:54:36.057Z,8.98
2023-06-19T00:55:08.876Z,9.47
2023-06-19T00:55:40.699Z,8.63
2023-06-19T00:56:12.882Z,8.30
2023-06-19T00:56:45.450Z,8.40
2023-06-19T00:57:17.302Z,8.38
2023-06-19T00:57:50.767Z,8.27
2023-06-19T00:58:22.968Z,9.50
2023-06-19T00:58:55.077Z,8.77
2023-06-19T00:59:27.266Z,8.93
2023-06-19T00:59:59.762Z,9.30
2023-06-19T01:00:31.400Z,8.47
2023-06-19T01:01:09.227Z,9.07
2023-06-19T01:01:42.637Z,8.98
2023-06-19T01:02:14.455Z,8.70
2023-06-19T01:02:48.214Z,8.77
2023-06-19T01:03:20.093Z,9.10
2023-06-19T01:03:51.991Z,9.07
2023-06-19T01:04:23.773Z,8.65
2023-06-19T01:04:55.516Z,9.85
2023-06-19T01:05:27.369Z,8.93
2023-06-19T01:06:02.136Z,9.10
2023-06-19T01:07:00.547Z,8.88
2023-06-19T01:07:41.586Z,8.45
2023-06-19T01:08:36.780Z,9.27
2023-06-19T01:09:15.986Z,9.02
2023-06-19T01:09:52.244Z,8.32
2023-06-19T01:10:31.734Z,8.93
2023-06-19T01:11:11.829Z,8.50
2023-06-19T01:12:05.414Z,8.68
2023-06-19T01:12:51.967Z,8.30
2023-06-19T01:13:51.989Z,7.83
2023-06-19T01:14:27.837Z,7.85
2023-06-19T01:15:03.998Z,8.70
2023-06-19T01:15:37.977Z,8.68
2023-06-19T01:16:10.993Z,8.35
2023-06-19T01:16:44.273Z,8.50
2023-06-19T01:17:17.050Z,9.40
2023-06-19T01:17:49.855Z,8.85
2023-06-19T01:18:22.477Z,8.95
2023-06-19T01:18:54.542Z,8.77
2023-06-19T01:19:27.037Z,8.67
2023-06-19T01:19:59.994Z,9.02
2023-06-19T01:20:32.269Z,9.38
2023-06-19T01:21:17.549Z,8.70
2023-06-19T01:21:51.016Z,8.57
2023-06-19T01:22:30.570Z,9.23
2023-06-19T01:23:09.520Z,8.82
2023-06-19T01:23:41.394Z,8.57
2023-06-19T01:24:13.031Z,8.65
2023-06-19T01:24:44.802Z,8.82
2023-06-19T01:25:16.848Z,8.87
2023-06-19T01:25:48.973Z,8.55
2023-06-19T01:26:27.759Z,9.55
2023-06-19T01:26:59.406Z,9.13
2023-06-19T01:27:31.341Z,9.00
2023-06-19T01:28:06.679Z,9.13
2023-06-19T01:28:41.428Z,8.77
2023-06-19T01:29:15.379Z,9.15
2023-06-19T01:29:47.207Z,9.05
2023-06-19T01:30:19.050Z,9.27
2023-06-19T01:30:51.124Z,9.20
2023-06-19T01:31:28.209Z,8.90
2023-06-19T01:32:05.448Z,8.82
2023-06-19T01:32:40.265Z,9.02
2023-06-19T01:33:33.509Z,8.95
2023-06-19T01:34:07.950Z,8.40
2023-06-19T01:34:41.067Z,8.63
2023-06-19T01:35:14.893Z,8.63
2023-06-19T01:35:48.949Z,8.52
2023-06-19T01:36:22.241Z,8.18
2023-06-19T01:36:58.288Z,7.97
2023-06-19T01:37:30.231Z,8.52
2023-06-19T01:38:03.491Z,8.93
2023-06-19T01:38:36.639Z,9.02
2023-06-19T01:39:10.185Z,8.50
2023-06-19T01:39:42.673Z,8.27
2023-06-19T01:40:16.585Z,8.55
2023-06-19T01:40:50.545Z,8.00
2023-06-19T01:41:23.922Z,8.88
2023-06-19T01:41:56.576Z,8.00
2023-06-19T01:42:28.922Z,8.30
2023-06-19T01:43:05.720Z,8.15
2023-06-19T01:43:38.376Z,8.30
2023-06-19T01:44:10.345Z,8.23
2023-06-19T01:44:42.117Z,8.80
2023-06-19T01:45:14.150Z,7.47
2023-06-19T01:45:45.879Z,8.18
2023-06-19T01:46:17.612Z,8.90
2023-06-19T01:46:51.357Z,8.57
2023-06-19T01:47:23.204Z,8.23
2023-06-19T01:47:55.332Z,8.53
2023-06-19T01:48:27.086Z,8.40
2023-06-19T01:48:58.912Z,9.05
2023-06-19T01:49:30.627Z,8.27
2023-06-19T01:50:02.458Z,9.20
2023-06-19T01:50:34.096Z,9.13
2023-06-19T01:51:05.884Z,9.60
2023-06-19T01:51:37.653Z,8.23
2023-06-19T01:52:09.847Z,9.27
2023-06-19T01:52:41.507Z,9.07
2023-06-19T01:53:13.219Z,8.90
2023-06-19T01:53:44.864Z,8.98
2023-06-19T01:54:16.714Z,8.75
2023-06-19T01:54:48.382Z,9.25
2023-06-19T01:55:20.971Z,9.27
2023-06-19T01:55:52.803Z,8.77
2023-06-19T01:56:25.369Z,9.70
2023-06-19T01:56:58.606Z,9.15
2023-06-19T01:57:30.568Z,9.43
2023-06-19T01:58:02.248Z,9.20
2023-06-19T01:58:33.891Z,9.47
2023-06-19T01:59:05.563Z,9.23
2023-06-19T01:59:37.183Z,8.80
2023-06-19T02:00:11.264Z,9.18
2023-06-19T02:00:43.051Z,8.90
2023-06-19T02:01:15.090Z,9.10
2023-06-19T02:01:46.809Z,9.27
2023-06-19T02:02:18.552Z,9.38
2023-06-19T02:02:50.474Z,9.18
2023-06-19T02:03:22.449Z,9.88
2023-06-19T02:03:54.224Z,9.80
2023-06-19T02:04:25.907Z,10.15
2023-06-19T02:04:57.582Z,9.68
2023-06-19T02:05:29.188Z,9.70
2023-06-19T02:06:00.849Z,9.57
2023-06-19T02:06:32.622Z,10.23
2023-06-19T02:07:04.506Z,10.25
2023-06-19T02:07:36.239Z,10.30
2023-06-19T02:08:08.030Z,10.07
2023-06-19T02:08:39.667Z,9.93
2023-06-19T02:09:12.103Z,9.80
2023-06-19T02:09:43.925Z,9.82
2023-06-19T02:10:15.645Z,9.48
2023-06-19T02:10:47.451Z,9.00
2023-06-19T02:11:19.120Z,9.27
2023-06-19T02:11:50.874Z,9.52
2023-06-19T02:12:22.705Z,9.43
2023-06-19T02:12:54.476Z,9.80
2023-06-19T02:13:26.145Z,9.38
2023-06-19T02:13:57.789Z,9.55
2023-06-19T02:14:29.460Z,9.80
2023-06-19T02:15:01.134Z,9.32
2023-06-19T02:15:32.972Z,9.60
2023-06-19T02:16:05.145Z,9.52
2023-06-19T02:16:36.831Z,9.30
2023-06-19T02:17:08.550Z,9.30
2023-06-19T02:17:40.297Z,9.48
2023-06-19T02:18:12.097Z,10.00
2023-06-19T02:18:43.785Z,10.07
2023-06-19T02:19:15.422Z,9.38
2023-06-19T02:19:47.474Z,8.87
2023-06-19T02:20:19.140Z,8.85
2023-06-19T02:20:50.757Z,8.68
2023-06-19T02:21:22.410Z,8.75
2023-06-19T02:21:54.073Z,8.18
2023-06-19T02:22:25.764Z,9.15
2023-06-19T02:22:57.630Z,9.30
2023-06-19T02:23:29.354Z,8.98
2023-06-19T02:24:01.046Z,9.10
2023-06-19T02:24:32.815Z,9.18
2023-06-19T02:25:05.218Z,9.53
2023-06-19T02:25:37.339Z,8.52
2023-06-19T02:26:09.012Z,9.20
2023-06-19T02:26:40.737Z,9.63
2023-06-19T02:27:12.378Z,9.35
2023-06-19T02:27:44.231Z,9.02
2023-06-19T02:28:17.134Z,8.90
2023-06-19T02:28:48.809Z,8.60
2023-06-19T02:29:21.161Z,9.48
2023-06-19T02:29:52.829Z,8.75
2023-06-19T02:30:24.804Z,8.93
2023-06-19T02:30:56.769Z,8.60
2023-06-19T02:31:28.431Z,9.50
2023-06-19T02:32:00.130Z,8.70
2023-06-19T02:32:32.154Z,8.80
2023-06-19T02:33:03.999Z,9.38
2023-06-19T02:33:35.741Z,9.75
2023-06-19T02:34:07.367Z,9.20
2023-06-19T02:34:39.035Z,9.07
2023-06-19T02:35:12.724Z,9.30
2023-06-19T02:35:45.662Z,9.17
2023-06-19T02:36:20.578Z,9.73
2023-06-19T02:36:52.372Z,9.10
2023-06-19T02:37:24.022Z,8.85
2023-06-19T02:37:55.691Z,9.38
2023-06-19T02:38:27.623Z,8.73
2023-06-19T02:38:59.285Z,9.13
2023-06-19T02:39:30.965Z,8.80
2023-06-19T02:40:06.418Z,9.23
2023-06-19T02:40:38.099Z,9.02
2023-06-19T02:41:09.771Z,9.37
2023-06-19T02:41:44.353Z,9.40
2023-06-19T02:42:16.023Z,9.35
2023-06-19T02:42:47.685Z,9.85
2023-06-19T02:43:19.302Z,9.18
2023-06-19T02:43:51.049Z,8.98
2023-06-19T02:44:22.683Z,9.30
2023-06-19T02:44:54.354Z,9.93
2023-06-19T02:45:26.031Z,10.15
2023-06-19T02:45:57.762Z,9.20
2023-06-19T02:46:29.598Z,10.00
2023-06-19T02:47:01.336Z,9.57
2023-06-19T02:47:33.904Z,9.75
2023-06-19T02:48:06.087Z,9.25
2023-06-19T02:48:37.941Z,9.85
2023-06-19T02:49:09.615Z,10.30
2023-06-19T02:49:41.237Z,10.45
2023-06-19T02:50:12.890Z,10.20
2023-06-19T02:50:44.549Z,10.70
2023-06-19T02:51:16.341Z,10.93
2023-06-19T02:51:48.009Z,10.67
2023-06-19T02:52:19.701Z,10.00
2023-06-19T02:52:51.324Z,10.77
2023-06-19T02:53:23.162Z,10.15
2023-06-19T02:53:54.826Z,10.43
2023-06-19T02:54:26.487Z,11.00
2023-06-19T02:54:58.205Z,9.65
2023-06-19T02:55:29.836Z,10.05
2023-06-19T02:56:01.523Z,10.20
2023-06-19T02:56:33.203Z,10.73
2023-06-19T02:57:05.206Z,10.97
2023-06-19T02:57:36.842Z,10.63
2023-06-19T02:58:08.465Z,10.20
2023-06-19T02:58:40.424Z,9.93
2023-06-19T02:59:12.114Z,10.43
2023-06-19T02:59:43.752Z,9.65
2023-06-19T03:00:15.979Z,9.88
2023-06-19T03:00:47.828Z,9.50
2023-06-19T03:01:19.473Z,9.65
2023-06-19T03:01:51.288Z,9.32
2023-06-19T03:02:23.269Z,10.10
2023-06-19T03:02:55.143Z,9.45
2023-06-19T03:03:27.245Z,9.65
2023-06-19T03:03:58.990Z,8.77
2023-06-19T03:04:30.704Z,9.18
2023-06-19T03:05:03.615Z,8.70
2023-06-19T03:05:35.311Z,9.25
2023-06-19T03:06:07.476Z,9.73
2023-06-19T03:06:41.133Z,9.43
2023-06-19T03:07:15.038Z,9.50
2023-06-19T03:07:47.104Z,9.87
2023-06-19T03:08:18.854Z,9.93
2023-06-19T03:08:50.467Z,9.27
2023-06-19T03:09:22.126Z,9.43
2023-06-19T03:09:53.770Z,9.77
2023-06-19T03:10:25.710Z,9.02
2023-06-19T03:10:57.663Z,9.77
2023-06-19T03:11:29.304Z,9.73
2023-06-19T03:12:00.957Z,10.07
2023-06-19T03:12:32.634Z,9.90
2023-06-19T03:13:04.325Z,10.00
2023-06-19T03:13:53.245Z,9.77
2023-06-19T03:14:24.955Z,9.73
2023-06-19T03:14:56.584Z,9.32
2023-06-19T03:15:28.315Z,10.30
2023-06-19T03:15:59.996Z,9.38
2023-06-19T03:16:31.673Z,9.75
2023-06-19T03:17:03.798Z,9.38
2023-06-19T03:17:35.728Z,9.50
2023-06-19T03:18:09.511Z,8.75
2023-06-19T03:18:42.787Z,9.23
2023-06-19T03:19:14.451Z,9.82
2023-06-19T03:19:46.122Z,9.07
2023-06-19T03:20:17.749Z,9.55
2023-06-19T03:20:49.477Z,9.55
2023-06-19T03:21:21.350Z,8.98
2023-06-19T03:21:53.158Z,9.20
2023-06-19T03:22:24.802Z,9.40
2023-06-19T03:22:56.508Z,8.88
2023-06-19T03:23:28.193Z,9.50
2023-06-19T03:23:59.846Z,9.60
2023-06-19T03:24:31.686Z,9.70
2023-06-19T03:25:04.255Z,9.35
2023-06-19T03:25:36.465Z,9.27
2023-06-19T03:26:11.548Z,10.18
2023-06-19T03:26:43.262Z,9.10
2023-06-19T03:27:14.918Z,9.75
2023-06-19T03:27:46.601Z,9.55
2023-06-19T03:28:18.278Z,9.40
2023-06-19T03:28:49.896Z,9.73
2023-06-19T03:29:21.574Z,9.60
2023-06-19T03:29:54.494Z,9.82
2023-06-19T03:30:26.274Z,9.43
2023-06-19T03:30:58.112Z,9.07
2023-06-19T03:31:29.768Z,10.23
2023-06-19T03:32:01.408Z,9.88
2023-06-19T03:32:36.214Z,9.77
2023-06-19T03:33:07.977Z,9.25
2023-06-19T03:33:39.738Z,9.48
2023-06-19T03:34:11.423Z,8.90
2023-06-19T03:34:43.398Z,9.63
2023-06-19T03:35:16.069Z,9.75
2023-06-19T03:35:47.852Z,9.32
2023-06-19T03:36:19.628Z,9.63
2023-06-19T03:36:51.320Z,10.15
2023-06-19T03:37:22.986Z,8.95
2023-06-19T03:37:54.721Z,9.27
2023-06-19T03:38:26.427Z,9.05
2023-06-19T03:38:58.067Z,9.73
2023-06-19T03:39:29.709Z,9.40
2023-06-19T03:40:01.584Z,9.53
2023-06-19T03:40:33.243Z,9.13
2023-06-19T03:41:05.052Z,9.70
2023-06-19T03:41:36.784Z,9.75
2023-06-19T03:42:08.864Z,9.82
2023-06-19T03:42:41.408Z,9.10
2023-06-19T03:43:13.081Z,9.27
2023-06-19T03:43:44.735Z,9.77
2023-06-19T03:44:16.360Z,9.77
2023-06-19T03:44:48.051Z,9.23
2023-06-19T03:45:19.692Z,9.50
2023-06-19T03:45:51.353Z,9.35
2023-06-19T03:46:22.987Z,9.75
2023-06-19T03:46:54.704Z,9.35
2023-06-19T03:47:26.454Z,9.13
2023-06-19T03:47:58.173Z,8.85
2023-06-19T03:48:29.883Z,10.20
2023-06-19T03:49:01.620Z,9.15
2023-06-19T03:49:33.284Z,9.45
2023-06-19T03:50:19.800Z,9.20
2023-06-19T03:50:52.065Z,9.60
2023-06-19T03:51:23.758Z,8.88
2023-06-19T03:51:58.377Z,9.45
2023-06-19T03:52:30.072Z,9.15
2023-06-19T03:53:01.785Z,9.25
2023-06-19T03:53:33.432Z,8.60
2023-06-19T03:54:05.276Z,9.00
2023-06-19T03:54:36.895Z,9.07
2023-06-19T03:55:08.727Z,9.18
2023-06-19T03:55:40.435Z,9.65
2023-06-19T03:56:12.127Z,8.80
2023-06-19T03:56:43.772Z,9.13
2023-06-19T03:57:15.420Z,9.07
2023-06-19T03:57:47.114Z,9.93
2023-06-19T03:58:18.736Z,9.45
2023-06-19T03:58:50.534Z,9.60
2023-06-19T03:59:22.229Z,8.90
2023-06-19T03:59:55.071Z,8.85
2023-06-19T04:00:27.127Z,9.40
2023-06-19T04:00:58.940Z,8.98
2023-06-19T04:01:30.599Z,9.17
2023-06-19T04:02:02.460Z,9.23
2023-06-19T04:02:34.692Z,8.57
2023-06-19T04:03:06.502Z,9.80
2023-06-19T04:03:40.579Z,9.00
2023-06-19T04:04:13.850Z,9.35
2023-06-19T04:04:45.678Z,9.98
2023-06-19T04:05:17.529Z,9.45
2023-06-19T04:05:49.221Z,9.43
2023-06-19T04:06:20.909Z,9.40
2023-06-19T04:06:52.577Z,9.47
2023-06-19T04:07:24.251Z,8.77
2023-06-19T04:07:55.960Z,9.43
2023-06-19T04:08:27.663Z,9.70
2023-06-19T04:08:59.305Z,9.60
2023-06-19T04:09:30.918Z,9.35
2023-06-19T04:10:02.600Z,9.30
2023-06-19T04:10:36.070Z,8.98
2023-06-19T04:11:07.965Z,9.30
2023-06-19T04:11:39.636Z,9.38
2023-06-19T04:12:11.391Z,9.53
2023-06-19T04:12:43.168Z,9.32
2023-06-19T04:13:14.891Z,9.93
2023-06-19T04:13:46.562Z,9.30
2023-06-19T04:14:18.449Z,8.65
2023-06-19T04:14:50.162Z,8.48
2023-06-19T04:15:21.997Z,8.95
2023-06-19T04:15:53.744Z,8.93
2023-06-19T04:16:25.478Z,8.80
2023-06-19T04:16:57.184Z,8.75
2023-06-19T04:17:28.962Z,9.17
2023-06-19T04:18:02.158Z,8.77
2023-06-19T04:18:33.837Z,8.95
2023-06-19T04:19:05.506Z,9.35
2023-06-19T04:19:37.164Z,8.93
2023-06-19T04:20:12.690Z,8.65
2023-06-19T04:20:44.843Z,9.70
2023-06-19T04:21:17.378Z,9.77
2023-06-19T04:21:49.013Z,8.60
2023-06-19T04:22:20.668Z,9.55
2023-06-19T04:22:52.325Z,8.73
2023-06-19T04:23:23.969Z,9.38
2023-06-19T04:23:55.733Z,9.05
2023-06-19T04:24:27.545Z,9.07
2023-06-19T04:24:59.264Z,8.98
2023-06-19T04:25:30.934Z,9.60
2023-06-19T04:26:03.285Z,10.32
2023-06-19T04:26:34.962Z,9.93
2023-06-19T04:27:09.260Z,9.40
2023-06-19T04:27:41.032Z,8.93
2023-06-19T04:28:12.711Z,8.70
2023-06-19T04:28:44.454Z,9.07
2023-06-19T04:29:18.097Z,9.35
2023-06-19T04:29:49.832Z,9.88
2023-06-19T04:30:24.919Z,9.48
2023-06-19T04:31:01.452Z,9.43
2023-06-19T04:31:33.780Z,9.60
2023-06-19T04:32:12.175Z,9.13
2023-06-19T04:32:44.188Z,8.77
2023-06-19T04:33:16.084Z,9.30
2023-06-19T04:33:47.882Z,9.80
2023-06-19T04:34:23.005Z,9.68
2023-06-19T04:34:54.694Z,8.65
2023-06-19T04:35:26.504Z,9.55
2023-06-19T04:35:58.176Z,9.93
2023-06-19T04:36:32.928Z,9.40
2023-06-19T04:37:04.905Z,9.57
2023-06-19T04:37:36.988Z,9.80
2023-06-19T04:38:09.420Z,9.95
2023-06-19T04:38:41.062Z,9.20
2023-06-19T04:39:12.663Z,9.17
2023-06-19T04:39:44.335Z,9.38
2023-06-19T04:40:16.484Z,9.48
2023-06-19T04:40:48.140Z,9.48
2023-06-19T04:41:19.810Z,9.00
2023-06-19T04:41:51.554Z,9.77
2023-06-19T04:42:23.216Z,9.73
2023-06-19T04:42:55.066Z,9.02
2023-06-19T04:43:26.757Z,9.43
2023-06-19T04:43:58.389Z,9.55
2023-06-19T04:44:34.631Z,9.90
2023-06-19T04:45:08.550Z,10.07
2023-06-19T04:45:40.291Z,9.60
2023-06-19T04:46:12.003Z,10.15
2023-06-19T04:46:45.426Z,9.93
2023-06-19T04:47:19.559Z,9.98
2023-06-19T04:47:54.049Z,9.75
2023-06-19T04:48:27.188Z,9.68
2023-06-19T04:48:59.047Z,9.88
2023-06-19T04:49:31.749Z,10.10
2023-06-19T04:50:03.721Z,10.33
2023-06-19T04:50:36.024Z,10.15
2023-06-19T04:51:07.712Z,10.55
2023-06-19T04:51:39.529Z,9.73
2023-06-19T04:52:12.475Z,9.52
2023-06-19T04:52:44.376Z,10.00
2023-06-19T04:53:15.996Z,10.07
2023-06-19T04:53:48.724Z,10.25
2023-06-19T04:54:20.439Z,10.18
2023-06-19T04:54:52.211Z,10.27
2023-06-19T04:55:26.579Z,10.73
2023-06-19T04:55:59.653Z,10.25
2023-06-19T04:56:33.398Z,10.02
2023-06-19T04:57:05.504Z,10.52
2023-06-19T04:57:38.231Z,10.50
2023-06-19T04:58:10.033Z,11.05
2023-06-19T04:58:47.123Z,10.50
2023-06-19T04:59:19.353Z,10.65
2023-06-19T04:59:51.022Z,10.50
2023-06-19T05:00:24.714Z,10.32
2023-06-19T05:00:56.721Z,10.30
2023-06-19T05:01:31.602Z,10.02
2023-06-19T05:02:03.496Z,10.18
2023-06-19T05:02:35.625Z,10.60
2023-06-19T05:03:07.382Z,10.20
2023-06-19T05:03:39.286Z,10.38
2023-06-19T05:04:12.485Z,10.18
2023-06-19T05:04:44.768Z,10.63
2023-06-19T05:05:17.288Z,10.93
2023-06-19T05:05:49.035Z,9.90
2023-06-19T05:06:20.646Z,10.73
2023-06-19T05:06:52.454Z,10.57
2023-06-19T05:07:24.104Z,11.02
2023-06-19T05:07:55.809Z,10.98
2023-06-19T05:08:27.446Z,11.27
2023-06-19T05:08:59.118Z,10.30
2023-06-19T05:09:30.782Z,10.40
2023-06-19T05:10:02.479Z,10.68
2023-06-19T05:10:34.136Z,11.10
2023-06-19T05:11:05.811Z,11.15
2023-06-19T05:11:37.838Z,11.00
2023-06-19T05:12:10.823Z,10.63
2023-06-19T05:12:43.443Z,10.98
2023-06-19T05:13:15.152Z,10.20
2023-06-19T05:13:46.872Z,9.82
2023-06-19T05:14:18.532Z,10.68
2023-06-19T05:14:50.206Z,10.18
2023-06-19T05:15:21.930Z,10.60
2023-06-19T05:15:53.645Z,11.43
2023-06-19T05:16:26.166Z,10.32
2023-06-19T05:16:57.891Z,11.70
2023-06-19T05:17:29.717Z,10.68
2023-06-19T05:18:01.536Z,10.55
2023-06-19T05:18:33.359Z,10.40
2023-06-19T05:19:05.200Z,10.32
2023-06-19T05:19:37.235Z,11.02
2023-06-19T05:20:09.457Z,10.55
2023-06-19T05:20:41.161Z,10.27
2023-06-19T05:21:12.838Z,11.45
2023-06-19T05:21:44.482Z,10.18
2023-06-19T05:22:16.097Z,10.03
2023-06-19T05:22:47.794Z,10.65
2023-06-19T05:23:19.463Z,10.93
2023-06-19T05:23:52.075Z,10.80
2023-06-19T05:24:23.762Z,11.23
2023-06-19T05:24:55.489Z,10.02
2023-06-19T05:25:27.214Z,10.40
2023-06-19T05:25:58.826Z,10.15
2023-06-19T05:26:30.494Z,10.55
2023-06-19T05:27:02.272Z,9.38
2023-06-19T05:27:34.283Z,8.37
2023-06-19T05:28:06.371Z,8.45
2023-06-19T05:28:38.069Z,7.60
2023-06-19T05:29:09.943Z,8.80
2023-06-19T05:29:41.653Z,9.07
2023-06-19T05:30:13.651Z,9.25
2023-06-19T05:30:45.765Z,9.48
2023-06-19T05:31:17.432Z,9.23
2023-06-19T05:31:51.000Z,9.80
2023-06-19T05:32:22.641Z,8.90
2023-06-19T05:32:54.403Z,9.20
2023-06-19T05:33:26.121Z,9.43
2023-06-19T05:33:59.717Z,9.45
2023-06-19T05:34:31.435Z,8.88
2023-06-19T05:35:03.128Z,8.85
2023-06-19T05:35:34.820Z,9.25
2023-06-19T05:36:06.585Z,9.80
2023-06-19T05:36:38.213Z,8.80
2023-06-19T05:37:09.852Z,9.38
2023-06-19T05:37:44.117Z,9.25
2023-06-19T05:38:16.440Z,8.90
2023-06-19T05:38:48.207Z,8.75
2023-06-19T05:39:20.143Z,8.77
2023-06-19T05:39:51.755Z,8.95
2023-06-19T05:40:23.617Z,8.60
2023-06-19T05:40:55.399Z,8.63
2023-06-19T05:41:27.032Z,8.93
2023-06-19T05:41:58.744Z,9.13
2023-06-19T05:42:30.408Z,8.63
2023-06-19T05:43:02.333Z,9.05
2023-06-19T05:43:33.938Z,8.37
2023-06-19T05:44:05.654Z,8.15
2023-06-19T05:44:37.303Z,8.15
2023-06-19T05:45:09.250Z,8.13
2023-06-19T05:45:40.927Z,8.23
2023-06-19T05:46:13.127Z,8.23
2023-06-19T05:46:44.916Z,8.23
2023-06-19T05:47:18.230Z,7.78
2023-06-19T05:47:50.119Z,7.60
2023-06-19T05:48:21.808Z,7.47
2023-06-19T05:48:55.590Z,7.20
2023-06-19T05:49:27.262Z,8.50
2023-06-19T05:49:59.174Z,7.40
2023-06-19T05:50:31.958Z,7.45
2023-06-19T05:51:03.641Z,7.88
2023-06-19T05:51:35.327Z,7.07
2023-06-19T05:52:07.328Z,7.78
2023-06-19T05:52:42.809Z,7.65
2023-06-19T05:53:15.861Z,7.28
2023-06-19T05:53:47.868Z,7.07
2023-06-19T05:54:19.482Z,7.43
2023-06-19T05:54:51.508Z,7.25
2023-06-19T05:55:23.266Z,7.35
2023-06-19T05:55:54.938Z,7.55
2023-06-19T05:56:26.552Z,7.45
2023-06-19T05:56:58.212Z,7.13
2023-06-19T05:57:29.895Z,7.22
2023-06-19T05:58:02.026Z,7.03
2023-06-19T05:58:33.917Z,6.68
2023-06-19T05:59:05.686Z,6.70
2023-06-19T05:59:37.344Z,6.70
2023-06-19T06:00:12.437Z,6.40
2023-06-19T06:00:44.038Z,6.40
2023-06-19T06:01:15.766Z,6.70
2023-06-19T06:01:47.596Z,6.40
2023-06-19T06:02:20.721Z,6.03
2023-06-19T06:02:53.026Z,6.10
2023-06-19T06:03:28.742Z,5.75
2023-06-19T06:04:02.716Z,6.25
2023-06-19T06:04:35.708Z,6.50
2023-06-19T06:05:09.768Z,6.20
2023-06-19T06:05:41.501Z,5.82
2023-06-19T06:06:13.325Z,6.57
2023-06-19T06:06:44.983Z,6.05
2023-06-19T06:07:16.658Z,5.95
2023-06-19T06:07:48.328Z,5.38
2023-06-19T06:08:20.128Z,6.00
2023-06-19T06:08:52.547Z,5.63
2023-06-19T06:09:24.162Z,5.90
2023-06-19T06:09:55.761Z,5.75
2023-06-19T06:10:27.891Z,5.70
2023-06-19T06:10:59.870Z,5.40
2023-06-19T06:11:31.557Z,5.88
2023-06-19T06:12:03.344Z,5.88
2023-06-19T06:12:35.916Z,5.82
2023-06-19T06:13:07.582Z,5.78
2023-06-19T06:13:39.349Z,5.70
2023-06-19T06:14:13.291Z,5.75
2023-06-19T06:14:45.251Z,5.90
2023-06-19T06:15:17.264Z,5.70
2023-06-19T06:15:48.984Z,5.93
2023-06-19T06:16:20.825Z,5.68
2023-06-19T06:16:53.083Z,5.63
2023-06-19T06:17:24.757Z,5.93
2023-06-19T06:17:56.470Z,5.50
2023-06-19T06:18:28.826Z,5.55
2023-06-19T06:19:00.471Z,5.30
2023-06-19T06:19:33.188Z,5.63
2023-06-19T06:20:14.734Z,5.95
2023-06-19T06:20:46.348Z,5.68
2023-06-19T06:21:18.135Z,5.13
2023-06-19T06:21:50.507Z,5.25
2023-06-19T06:22:22.200Z,5.90
2023-06-19T06:22:54.448Z,5.28
2023-06-19T06:23:26.680Z,5.70
2023-06-19T06:23:58.326Z,5.22
2023-06-19T06:24:30.031Z,6.00
2023-06-19T06:25:01.695Z,5.20
2023-06-19T06:25:33.312Z,5.47
2023-06-19T06:26:04.990Z,5.57
2023-06-19T06:26:38.130Z,5.70
2023-06-19T06:27:09.972Z,5.78
2023-06-19T06:27:42.358Z,5.45
2023-06-19T06:28:14.019Z,5.00
2023-06-19T06:28:45.697Z,5.65
2023-06-19T06:29:17.516Z,5.43
2023-06-19T06:29:49.130Z,5.68
2023-06-19T06:30:20.840Z,5.20
2023-06-19T06:30:52.885Z,5.40
2023-06-19T06:31:24.730Z,5.45
2023-06-19T06:32:10.370Z,5.60
2023-06-19T06:32:42.134Z,5.60
2023-06-19T06:33:13.824Z,6.13
2023-06-19T06:33:45.687Z,5.82
2023-06-19T06:34:17.321Z,5.22
2023-06-19T06:34:49.012Z,5.35
2023-06-19T06:35:20.624Z,5.45
2023-06-19T06:35:54.796Z,5.55
2023-06-19T06:36:36.142Z,5.28
2023-06-19T06:37:08.707Z,5.32
2023-06-19T06:37:40.504Z,5.67
2023-06-19T06:38:12.342Z,5.13
2023-06-19T06:38:43.984Z,5.43
2023-06-19T06:39:15.617Z,5.78
2023-06-19T06:39:47.245Z,5.90
2023-06-19T06:40:19.031Z,5.75
2023-06-19T06:40:51.667Z,5.63
2023-06-19T06:41:23.275Z,5.07
2023-06-19T06:41:55.037Z,5.55
2023-06-19T06:42:26.708Z,5.13
2023-06-19T06:42:58.444Z,5.90
2023-06-19T06:43:30.154Z,5.10
2023-06-19T06:44:02.317Z,5.30
2023-06-19T06:44:33.998Z,4.88
2023-06-19T06:45:07.751Z,5.53
2023-06-19T06:45:39.545Z,5.45
2023-06-19T06:46:11.688Z,5.75
2023-06-19T06:46:43.325Z,5.57
2023-06-19T06:47:15.051Z,5.20
2023-06-19T06:47:46.726Z,4.93
2023-06-19T06:48:18.475Z,5.43
2023-06-19T06:48:51.221Z,5.57
2023-06-19T06:49:23.527Z,5.18
2023-06-19T06:49:55.228Z,5.18
2023-06-19T06:50:27.240Z,5.00
2023-06-19T06:51:02.534Z,4.85
2023-06-19T06:51:34.238Z,5.40
2023-06-19T06:52:06.569Z,5.57
2023-06-19T06:52:38.808Z,5.40
2023-06-19T06:53:10.469Z,5.45
2023-06-19T06:53:42.159Z,5.80
2023-06-19T06:54:13.774Z,4.85
2023-06-19T06:54:46.143Z,4.90
2023-06-19T06:55:17.869Z,5.32
2023-06-19T06:55:49.495Z,5.47
2023-06-19T06:56:21.180Z,5.80
2023-06-19T06:56:57.260Z,5.90
2023-06-19T06:57:29.149Z,5.43
2023-06-19T06:58:00.808Z,5.97
2023-06-19T06:58:32.434Z,5.18
2023-06-19T06:59:04.091Z,5.70
2023-06-19T06:59:35.779Z,5.82
2023-06-19T07:00:11.038Z,5.80
2023-06-19T07:00:42.801Z,5.43
2023-06-19T07:01:14.871Z,6.00
2023-06-19T07:01:46.608Z,5.57
2023-06-19T07:02:18.274Z,5.07
2023-06-19T07:02:51.609Z,5.55
2023-06-19T07:03:23.654Z,5.88
2023-06-19T07:03:55.621Z,5.65
2023-06-19T07:04:27.407Z,6.00
2023-06-19T07:04:59.094Z,5.38
2023-06-19T07:05:31.159Z,5.40
2023-06-19T07:06:04.010Z,5.55
2023-06-19T07:06:35.714Z,5.35
2023-06-19T07:07:07.884Z,5.05
2023-06-19T07:07:39.627Z,5.70
2023-06-19T07:08:11.933Z,5.03
2023-06-19T07:08:43.704Z,5.43
2023-06-19T07:09:16.425Z,5.28
2023-06-19T07:09:48.504Z,5.43
2023-06-19T07:10:20.122Z,6.10
2023-06-19T07:10:51.758Z,5.70
2023-06-19T07:11:23.493Z,5.22